createdAt,value
2023-06-29T00:01:56.476Z,1.40
2023-06-29T00:04:26.983Z,1.42
2023-06-29T00:06:55.762Z,1.20
2023-06-29T00:09:23.654Z,1.58
2023-06-29T00:11:50.784Z,1.73
2023-06-29T00:14:17.607Z,1.48
2023-06-29T00:16:44.712Z,1.20
2023-06-29T00:19:13.067Z,1.00
2023-06-29T00:21:40.291Z,1.60
2023-06-29T00:24:07.619Z,1.05
2023-06-29T00:26:34.473Z,0.90
2023-06-29T00:29:01.330Z,0.90
2023-06-29T00:31:28.310Z,1.45
2023-06-29T00:33:55.289Z,1.00
2023-06-29T00:36:22.339Z,1.42
2023-06-29T00:38:49.450Z,1.30
2023-06-29T00:41:16.338Z,1.10
2023-06-29T00:43:44.321Z,1.48
2023-06-29T00:46:14.177Z,1.45
2023-06-29T00:48:41.077Z,1.50
2023-06-29T00:51:08.309Z,1.02
2023-06-29T00:53:35.251Z,1.85
2023-06-29T00:56:03.192Z,1.58
2023-06-29T00:58:30.405Z,1.88
2023-06-29T01:00:57.388Z,1.27
2023-06-29T01:03:24.933Z,1.27
2023-06-29T01:05:57.579Z,1.25
2023-06-29T01:08:32.612Z,1.40
2023-06-29T01:11:02.707Z,1.40
2023-06-29T01:13:31.092Z,1.40
2023-06-29T01:15:59.684Z,1.55
2023-06-29T01:18:29.001Z,1.50
2023-06-29T01:20:56.564Z,1.30
2023-06-29T01:23:28.260Z,1.38
2023-06-29T01:25:56.526Z,2.05
2023-06-29T01:28:23.364Z,1.55
2023-06-29T01:30:51.259Z,1.45
2023-06-29T01:33:24.883Z,1.30
2023-06-29T01:36:01.610Z,1.75
2023-06-29T01:38:33.746Z,1.67
2023-06-29T01:41:02.530Z,1.13
2023-06-29T01:43:30.591Z,1.85
2023-06-29T01:45:58.539Z,1.30
2023-06-29T01:48:26.771Z,1.30
2023-06-29T01:50:53.849Z,1.80
2023-06-29T01:53:21.129Z,1.15
2023-06-29T01:55:47.890Z,1.63
2023-06-29T01:58:14.703Z,1.60
2023-06-29T02:00:41.510Z,1.30
2023-06-29T02:03:08.333Z,1.52
2023-06-29T02:05:35.271Z,1.83
2023-06-29T02:08:02.184Z,1.55
2023-06-29T02:10:29.036Z,1.25
2023-06-29T02:12:55.836Z,1.40
2023-06-29T02:15:22.768Z,1.30
2023-06-29T02:17:49.585Z,1.77
2023-06-29T02:20:18.644Z,1.27
2023-06-29T02:22:45.582Z,1.40
2023-06-29T02:25:12.970Z,1.08
2023-06-29T02:27:39.717Z,1.52
2023-06-29T02:30:07.270Z,1.20
2023-06-29T02:32:34.138Z,2.00
2023-06-29T02:35:00.916Z,1.40
2023-06-29T02:37:27.721Z,1.63
2023-06-29T02:39:54.475Z,1.20
2023-06-29T02:42:23.353Z,1.30
2023-06-29T02:44:50.143Z,1.27
2023-06-29T02:47:16.952Z,1.20
2023-06-29T02:49:43.715Z,1.40
2023-06-29T02:52:10.512Z,1.25
2023-06-29T02:54:37.275Z,1.95
2023-06-29T02:57:04.240Z,1.58
2023-06-29T02:59:31.230Z,1.42
2023-06-29T03:01:58.053Z,1.23
2023-06-29T03:04:24.820Z,1.23
2023-06-29T03:06:51.604Z,1.40
2023-06-29T03:09:18.430Z,1.10
2023-06-29T03:11:45.276Z,1.40
2023-06-29T03:14:12.107Z,1.35
2023-06-29T03:16:40.334Z,1.60
2023-06-29T03:19:07.190Z,1.48
2023-06-29T03:21:34.000Z,1.52
2023-06-29T03:24:00.885Z,1.48
2023-06-29T03:26:27.669Z,1.85
2023-06-29T03:28:54.453Z,1.77
2023-06-29T03:31:21.324Z,1.50
2023-06-29T03:33:48.176Z,1.33
2023-06-29T03:36:15.036Z,1.80
2023-06-29T03:38:41.794Z,1.63
2023-06-29T03:41:08.705Z,1.38
2023-06-29T03:43:35.460Z,1.60
2023-06-29T03:46:02.452Z,1.20
2023-06-29T03:48:29.304Z,1.50
2023-06-29T03:50:59.443Z,1.60
2023-06-29T03:53:26.215Z,1.48
2023-06-29T03:55:53.014Z,1.85
2023-06-29T03:58:19.939Z,1.10
2023-06-29T04:00:46.770Z,1.60
2023-06-29T04:03:13.783Z,1.63
2023-06-29T04:05:40.758Z,1.52
2023-06-29T04:08:08.241Z,1.35
2023-06-29T04:10:35.568Z,1.60
2023-06-29T04:13:02.642Z,1.65
2023-06-29T04:15:29.503Z,1.67
2023-06-29T04:17:56.368Z,1.58
2023-06-29T04:20:23.189Z,1.83
2023-06-29T04:22:49.999Z,1.70
2023-06-29T04:25:16.807Z,1.70
2023-06-29T04:27:44.265Z,1.45
2023-06-29T04:30:12.404Z,1.90
2023-06-29T04:32:40.133Z,1.65
2023-06-29T04:35:10.590Z,1.98
2023-06-29T04:37:41.958Z,2.43
2023-06-29T04:42:49.553Z,1.58
2023-06-29T04:45:19.512Z,1.85
2023-06-29T04:47:53.297Z,1.70
2023-06-29T04:50:26.538Z,1.67
2023-06-29T04:52:55.096Z,1.55
2023-06-29T04:55:23.048Z,1.40
2023-06-29T04:57:49.863Z,1.48
2023-06-29T05:00:17.084Z,1.40
2023-06-29T05:02:44.079Z,1.40
2023-06-29T05:05:11.058Z,1.40
2023-06-29T05:07:39.224Z,1.50
2023-06-29T05:10:06.935Z,1.25
2023-06-29T05:12:34.171Z,1.60
2023-06-29T05:15:01.006Z,1.50
2023-06-29T05:17:27.758Z,1.27
2023-06-29T05:19:54.685Z,1.00
2023-06-29T05:22:21.517Z,1.50
2023-06-29T05:24:48.290Z,1.38
2023-06-29T05:27:15.050Z,1.58
2023-06-29T05:29:41.912Z,1.30
2023-06-29T05:32:09.025Z,1.05
2023-06-29T05:34:36.859Z,1.50
2023-06-29T05:37:04.010Z,1.08
2023-06-29T05:39:30.847Z,1.00
2023-06-29T05:41:57.643Z,1.30
2023-06-29T05:44:24.477Z,1.65
2023-06-29T05:46:51.326Z,1.00
2023-06-29T05:49:18.139Z,1.40
2023-06-29T05:51:44.985Z,0.90
2023-06-29T05:54:11.854Z,1.08
2023-06-29T05:56:38.762Z,1.73
2023-06-29T05:59:05.619Z,1.45
2023-06-29T06:01:32.659Z,1.13
2023-06-29T06:03:59.756Z,1.08
2023-06-29T06:06:26.659Z,1.30
2023-06-29T06:08:53.448Z,1.00
2023-06-29T06:11:20.189Z,1.10
2023-06-29T06:13:47.083Z,1.00
2023-06-29T06:16:13.944Z,0.95
2023-06-29T06:18:40.731Z,1.10
2023-06-29T06:21:07.738Z,1.00
2023-06-29T06:23:34.718Z,0.90
2023-06-29T06:26:02.313Z,1.00
2023-06-29T06:28:29.321Z,1.10
2023-06-29T06:30:56.269Z,1.05
2023-06-29T06:33:23.191Z,1.00
2023-06-29T06:35:50.445Z,1.27
2023-06-29T06:38:17.517Z,0.98
2023-06-29T06:40:44.546Z,1.02
2023-06-29T06:43:11.597Z,0.80
2023-06-29T06:45:38.395Z,1.23
2023-06-29T06:48:05.555Z,1.40
2023-06-29T06:50:32.493Z,0.85
2023-06-29T06:52:59.262Z,1.05
2023-06-29T06:55:27.260Z,1.35
2023-06-29T06:57:54.183Z,0.98
2023-06-29T07:00:21.469Z,1.20
2023-06-29T07:02:48.317Z,1.13
2023-06-29T07:05:16.259Z,1.00
2023-06-29T07:07:43.187Z,1.23
2023-06-29T07:10:10.806Z,0.75
2023-06-29T07:12:38.112Z,1.33
2023-06-29T07:15:05.840Z,0.90
2023-06-29T07:17:33.487Z,0.77
2023-06-29T07:24:59.892Z,1.30
2023-06-29T07:27:26.798Z,0.73
2023-06-29T07:29:53.610Z,1.20
2023-06-29T07:32:20.381Z,0.90
2023-06-29T07:34:47.228Z,0.95
2023-06-29T07:37:14.110Z,1.05
2023-06-29T07:39:40.890Z,1.10
2023-06-29T07:42:07.755Z,0.80
2023-06-29T07:44:34.599Z,1.23
2023-06-29T07:47:01.616Z,0.90
2023-06-29T07:49:28.455Z,1.23
2023-06-29T07:51:55.246Z,1.10
2023-06-29T07:54:22.015Z,1.15
2023-06-29T07:59:18.554Z,1.45
2023-06-29T08:01:49.724Z,0.77
2023-06-29T08:04:17.722Z,1.05
2023-06-29T08:07:07.682Z,1.00
2023-06-29T08:09:36.503Z,1.13
2023-06-29T08:12:03.628Z,1.10
2023-06-29T08:14:30.423Z,1.20
2023-06-29T08:16:57.314Z,1.08
2023-06-29T08:19:24.294Z,1.08
2023-06-29T08:21:56.660Z,1.00
2023-06-29T08:24:23.609Z,1.23
2023-06-29T08:26:50.454Z,1.25
2023-06-29T08:29:17.333Z,1.00
2023-06-29T08:31:44.465Z,1.13
2023-06-29T08:34:12.172Z,0.98
2023-06-29T08:36:39.057Z,1.00
2023-06-29T08:39:05.949Z,1.17
2023-06-29T08:41:32.779Z,1.10
2023-06-29T08:43:59.928Z,1.13
2023-06-29T08:46:29.004Z,1.00
2023-06-29T08:48:56.511Z,1.33
2023-06-29T08:51:23.544Z,1.20
2023-06-29T08:53:52.098Z,0.98
2023-06-29T08:56:20.400Z,1.10
2023-06-29T08:58:47.829Z,1.33
2023-06-29T09:01:14.671Z,0.85
2023-06-29T09:03:42.067Z,1.20
2023-06-29T09:06:10.489Z,1.02
2023-06-29T09:08:39.134Z,1.13
2023-06-29T09:11:06.140Z,1.00
2023-06-29T09:13:34.726Z,1.20
2023-06-29T09:16:03.035Z,1.00
2023-06-29T09:18:30.840Z,1.00
2023-06-29T09:20:58.111Z,1.10
2023-06-29T09:23:30.149Z,0.93
2023-06-29T09:25:58.106Z,0.80
2023-06-29T09:28:25.576Z,0.90
2023-06-29T09:30:52.633Z,1.00
2023-06-29T09:33:20.529Z,0.90
2023-06-29T09:35:53.286Z,0.80
2023-06-29T09:38:21.713Z,0.90
2023-06-29T09:40:53.741Z,0.70
2023-06-29T09:43:23.354Z,1.08
2023-06-29T09:45:53.020Z,0.80
2023-06-29T09:50:56.118Z,0.90
2023-06-29T09:53:34.002Z,1.15
2023-06-29T09:56:03.347Z,1.00
2023-06-29T09:58:31.418Z,1.25
2023-06-29T10:01:01.254Z,1.17
2023-06-29T10:03:29.230Z,1.20
2023-06-29T10:06:04.668Z,1.10
2023-06-29T10:08:34.262Z,1.08
2023-06-29T10:11:03.941Z,1.08
2023-06-29T10:13:38.683Z,1.30
2023-06-29T10:16:10.224Z,1.33
2023-06-29T10:18:45.612Z,1.33
2023-06-29T10:21:12.638Z,1.30
2023-06-29T10:23:42.570Z,1.20
2023-06-29T10:26:10.747Z,1.17
2023-06-29T10:28:38.296Z,1.30
2023-06-29T10:31:05.229Z,1.50
2023-06-29T10:33:32.336Z,1.27
2023-06-29T10:36:01.281Z,1.45
2023-06-29T10:38:33.065Z,1.10
2023-06-29T10:40:59.958Z,1.45
2023-06-29T10:43:29.696Z,1.02
2023-06-29T10:45:56.468Z,1.10
2023-06-29T10:48:42.813Z,1.10
2023-06-29T10:51:12.950Z,1.33
2023-06-29T10:53:40.380Z,1.20
2023-06-29T10:56:33.397Z,1.20
2023-06-29T10:59:00.798Z,1.75
2023-06-29T11:01:28.057Z,1.05
2023-06-29T11:03:55.284Z,1.13
2023-06-29T11:06:33.509Z,1.35
2023-06-29T11:09:11.737Z,1.15
2023-06-29T11:11:39.575Z,1.00
2023-06-29T11:14:06.487Z,0.90
2023-06-29T11:16:34.838Z,2.15
2023-06-29T11:19:03.427Z,1.00
2023-06-29T11:21:30.444Z,1.58
2023-06-29T11:23:57.304Z,1.10
2023-06-29T11:26:24.709Z,1.00
2023-06-29T11:28:52.823Z,1.23
2023-06-29T11:31:21.255Z,1.40
2023-06-29T11:33:49.487Z,1.20
2023-06-29T11:36:16.825Z,1.33
2023-06-29T11:38:43.827Z,1.00
2023-06-29T11:41:10.993Z,1.00
2023-06-29T11:43:37.906Z,1.00
2023-06-29T11:46:04.951Z,1.10
2023-06-29T11:48:31.816Z,0.90
2023-06-29T11:51:01.418Z,1.08
2023-06-29T11:53:30.293Z,0.90
2023-06-29T11:55:57.826Z,1.83
2023-06-29T11:58:32.940Z,1.13
2023-06-29T12:00:59.793Z,1.00
2023-06-29T12:03:27.935Z,0.95
2023-06-29T12:05:59.231Z,1.20
2023-06-29T12:08:26.066Z,1.58
2023-06-29T12:10:52.946Z,1.10
2023-06-29T12:13:20.804Z,0.90
2023-06-29T12:18:17.657Z,1.52
2023-06-29T12:20:47.976Z,0.95
2023-06-29T12:23:15.931Z,0.70
2023-06-29T12:25:48.588Z,0.80
2023-06-29T12:28:16.177Z,0.60
2023-06-29T12:30:44.289Z,0.82
2023-06-29T12:33:13.591Z,0.85
2023-06-29T12:35:40.802Z,1.00
2023-06-29T12:38:07.870Z,1.30
2023-06-29T12:40:35.327Z,0.90
2023-06-29T12:43:02.442Z,1.00
2023-06-29T12:45:29.379Z,0.98
2023-06-29T12:47:56.460Z,1.10
2023-06-29T12:50:23.371Z,1.35
2023-06-29T12:52:50.201Z,1.10
2023-06-29T12:55:17.158Z,1.05
2023-06-29T12:57:45.482Z,1.40
2023-06-29T13:00:13.866Z,1.10
2023-06-29T13:02:41.110Z,1.30
2023-06-29T13:05:08.142Z,1.05
2023-06-29T13:07:37.092Z,1.38
2023-06-29T13:10:05.060Z,1.10
2023-06-29T13:12:32.488Z,1.40
2023-06-29T13:15:00.273Z,1.40
2023-06-29T13:17:27.485Z,1.17
2023-06-29T13:19:54.354Z,2.00
2023-06-29T13:22:24.261Z,1.17
2023-06-29T13:24:51.132Z,1.30
2023-06-29T13:27:18.192Z,1.40
2023-06-29T13:29:45.031Z,1.13
2023-06-29T13:32:11.897Z,1.40
2023-06-29T13:34:38.709Z,1.50
2023-06-29T13:37:05.864Z,1.80
2023-06-29T13:39:32.742Z,1.40
2023-06-29T13:41:59.753Z,1.15
2023-06-29T13:44:26.537Z,1.80
2023-06-29T13:46:53.374Z,1.23
2023-06-29T13:49:21.610Z,1.58
2023-06-29T13:51:49.662Z,1.88
2023-06-29T13:54:17.078Z,1.35
2023-06-29T13:56:44.521Z,1.38
2023-06-29T13:59:11.503Z,1.27
2023-06-29T14:01:40.838Z,1.30
2023-06-29T14:04:11.117Z,1.25
2023-06-29T14:06:44.328Z,1.07
2023-06-29T14:09:13.037Z,1.35
2023-06-29T14:11:40.792Z,1.45
2023-06-29T14:14:07.734Z,1.40
2023-06-29T14:16:35.805Z,1.40
2023-06-29T14:19:03.750Z,1.33
2023-06-29T14:21:31.252Z,1.50
2023-06-29T14:23:58.131Z,1.20
2023-06-29T14:26:24.960Z,1.55
2023-06-29T14:28:52.122Z,1.20
2023-06-29T14:31:19.627Z,1.20
2023-06-29T14:33:46.681Z,1.13
2023-06-29T14:36:14.019Z,1.58
2023-06-29T14:38:40.973Z,1.52
2023-06-29T14:41:07.847Z,1.60
2023-06-29T14:43:34.715Z,1.40
2023-06-29T14:46:01.628Z,1.30
2023-06-29T14:48:28.560Z,1.33
2023-06-29T14:50:56.641Z,1.58
2023-06-29T14:53:24.516Z,1.38
2023-06-29T14:56:04.183Z,1.20
2023-06-29T14:58:31.499Z,1.60
2023-06-29T15:00:58.647Z,1.40
2023-06-29T15:03:25.884Z,1.73
2023-06-29T15:05:52.866Z,1.70
2023-06-29T15:08:19.701Z,1.65
2023-06-29T15:10:46.525Z,1.50
2023-06-29T15:13:13.591Z,1.85
2023-06-29T15:15:40.356Z,1.17
2023-06-29T15:18:07.225Z,1.50
2023-06-29T15:20:35.610Z,1.55
2023-06-29T15:23:02.679Z,1.60
2023-06-29T15:25:29.618Z,1.48
2023-06-29T15:27:59.121Z,1.98
2023-06-29T15:30:26.090Z,1.40
2023-06-29T15:32:52.919Z,1.80
2023-06-29T15:35:19.865Z,1.30
2023-06-29T15:37:46.689Z,1.73
2023-06-29T15:40:14.225Z,2.17
2023-06-29T15:42:41.400Z,1.85
2023-06-29T15:45:08.575Z,1.77
2023-06-29T15:47:37.008Z,1.90
2023-06-29T15:50:06.070Z,2.00
2023-06-29T15:52:33.465Z,1.70
2023-06-29T15:55:00.590Z,1.85
2023-06-29T15:57:27.381Z,1.90
2023-06-29T15:59:54.280Z,1.63
2023-06-29T16:02:21.284Z,2.30
2023-06-29T16:04:48.195Z,2.17
2023-06-29T16:07:15.076Z,1.90
2023-06-29T16:09:41.956Z,2.80
2023-06-29T16:12:09.712Z,2.25
2023-06-29T16:14:36.717Z,1.55
2023-06-29T16:17:03.905Z,2.25
2023-06-29T16:19:30.798Z,2.15
2023-06-29T16:21:57.772Z,2.05
2023-06-29T16:24:24.592Z,2.30
2023-06-29T16:26:51.993Z,2.25
2023-06-29T16:29:19.060Z,2.00
2023-06-29T16:31:49.635Z,2.17
2023-06-29T16:34:16.532Z,3.08
2023-06-29T16:36:43.632Z,2.45
2023-06-29T16:39:10.620Z,1.98
2023-06-29T16:41:38.086Z,3.40
2023-06-29T16:44:05.018Z,2.55
2023-06-29T16:46:31.947Z,2.30
2023-06-29T16:49:00.102Z,2.40
2023-06-29T16:51:29.358Z,2.92
2023-06-29T16:53:57.130Z,2.30
2023-06-29T16:56:24.062Z,2.38
2023-06-29T16:58:51.024Z,2.92
2023-06-29T17:01:18.580Z,3.05
2023-06-29T17:03:45.614Z,2.20
2023-06-29T17:06:12.949Z,2.83
2023-06-29T17:08:41.241Z,2.63
2023-06-29T17:11:08.648Z,2.75
2023-06-29T17:13:35.677Z,3.15
2023-06-29T17:16:03.390Z,2.92
2023-06-29T17:18:30.401Z,2.35
2023-06-29T17:20:57.188Z,2.45
2023-06-29T17:23:24.049Z,2.60
2023-06-29T17:25:51.777Z,2.97
2023-06-29T17:28:19.970Z,2.92
2023-06-29T17:30:47.105Z,2.35
2023-06-29T17:33:15.101Z,2.20
2023-06-29T17:35:42.405Z,3.75
2023-06-29T17:38:09.899Z,3.00
2023-06-29T17:40:36.758Z,2.67
2023-06-29T17:43:03.695Z,3.03
2023-06-29T17:45:30.620Z,2.75
2023-06-29T17:47:57.476Z,2.50
2023-06-29T17:50:24.411Z,3.45
2023-06-29T17:52:51.760Z,3.13
2023-06-29T17:55:19.480Z,3.53
2023-06-29T17:57:46.306Z,3.22
2023-06-29T18:00:16.438Z,2.47
2023-06-29T18:02:43.665Z,3.20
2023-06-29T18:05:11.182Z,2.67
2023-06-29T18:07:38.704Z,3.15
2023-06-29T18:10:08.245Z,2.63
2023-06-29T18:12:36.606Z,2.55
2023-06-29T18:15:04.473Z,3.75
2023-06-29T18:17:31.419Z,2.97
2023-06-29T18:19:59.107Z,3.20
2023-06-29T18:22:26.296Z,3.58
2023-06-29T18:24:53.349Z,3.42
2023-06-29T18:27:20.237Z,2.92
2023-06-29T18:29:47.005Z,3.17
2023-06-29T18:32:13.912Z,3.50
2023-06-29T18:34:40.685Z,3.70
2023-06-29T18:37:07.696Z,3.67
2023-06-29T18:39:34.526Z,3.85
2023-06-29T18:42:01.343Z,4.30
2023-06-29T18:44:28.140Z,3.38
2023-06-29T18:47:11.344Z,3.33
2023-06-29T18:49:50.802Z,3.42
2023-06-29T18:52:20.056Z,3.55
2023-06-29T18:54:47.518Z,4.32
2023-06-29T18:57:14.392Z,3.67
2023-06-29T18:59:43.176Z,3.85
2023-06-29T19:02:10.762Z,3.55
2023-06-29T19:04:37.580Z,3.40
2023-06-29T19:07:04.808Z,4.45
2023-06-29T19:09:31.879Z,4.32
2023-06-29T19:12:00.715Z,3.40
2023-06-29T19:14:27.773Z,3.95
2023-06-29T19:16:57.743Z,3.80
2023-06-29T19:19:25.378Z,4.43
2023-06-29T19:21:53.083Z,4.20
2023-06-29T19:24:20.354Z,3.80
2023-06-29T19:26:47.389Z,4.88
2023-06-29T19:29:14.875Z,3.38
2023-06-29T19:31:43.743Z,3.30
2023-06-29T19:34:12.113Z,4.97
2023-06-29T19:36:39.636Z,4.05
2023-06-29T19:39:06.666Z,4.00
2023-06-29T19:41:33.691Z,3.95
2023-06-29T19:44:01.186Z,4.43
2023-06-29T19:46:28.247Z,4.00
2023-06-29T19:48:55.313Z,3.90
2023-06-29T19:51:22.349Z,4.55
2023-06-29T19:53:49.185Z,5.07
2023-06-29T19:56:16.125Z,4.40
2023-06-29T19:58:43.030Z,4.18
2023-06-29T20:01:09.901Z,4.90
2023-06-29T20:03:36.795Z,3.58
2023-06-29T20:06:04.195Z,3.60
2023-06-29T20:08:31.089Z,3.95
2023-06-29T20:10:57.882Z,4.28
2023-06-29T20:13:24.729Z,3.60
2023-06-29T20:15:51.796Z,4.45
2023-06-29T20:18:18.671Z,4.13
2023-06-29T20:20:45.499Z,3.72
2023-06-29T20:23:12.442Z,4.68
2023-06-29T20:25:39.348Z,4.82
2023-06-29T20:28:06.225Z,4.90
2023-06-29T20:30:33.332Z,3.92
2023-06-29T20:33:00.310Z,4.18
2023-06-29T20:35:27.374Z,3.58
2023-06-29T20:37:54.826Z,3.92
2023-06-29T20:40:21.848Z,4.63
2023-06-29T20:42:48.706Z,4.32
2023-06-29T20:45:15.611Z,4.13
2023-06-29T20:47:42.483Z,5.13
2023-06-29T20:50:09.611Z,4.55
2023-06-29T20:52:36.453Z,5.85
2023-06-29T20:55:03.548Z,5.18
2023-06-29T20:57:30.322Z,3.95
2023-06-29T20:59:57.193Z,4.45
2023-06-29T21:02:24.231Z,3.85
2023-06-29T21:04:51.292Z,4.18
2023-06-29T21:07:19.124Z,4.20
2023-06-29T21:09:46.166Z,4.75
2023-06-29T21:12:13.892Z,4.93
2023-06-29T21:14:41.170Z,5.65
2023-06-29T21:17:08.580Z,5.30
2023-06-29T21:19:35.549Z,4.43
2023-06-29T21:22:02.646Z,5.63
2023-06-29T21:24:29.967Z,4.93
2023-06-29T21:26:56.929Z,4.28
2023-06-29T21:29:34.481Z,4.35
2023-06-29T21:32:11.707Z,4.45
2023-06-29T21:34:39.520Z,4.95
2023-06-29T21:37:07.008Z,4.07
2023-06-29T21:39:33.949Z,4.43
2023-06-29T21:42:00.994Z,4.05
2023-06-29T21:44:27.836Z,3.92
2023-06-29T21:46:54.768Z,4.15
2023-06-29T21:49:21.924Z,3.25
2023-06-29T21:51:49.053Z,2.45
2023-06-29T21:54:15.835Z,3.63
2023-06-29T21:56:42.743Z,3.03
2023-06-29T21:59:09.554Z,3.42
2023-06-29T22:01:36.446Z,3.35
2023-06-29T22:04:03.446Z,2.83
2023-06-29T22:06:30.608Z,3.38
2023-06-29T22:08:57.576Z,2.50
2023-06-29T22:11:28.184Z,3.30
2023-06-29T22:13:55.434Z,3.05
2023-06-29T22:16:25.112Z,2.97
2023-06-29T22:18:52.311Z,3.28
2023-06-29T22:21:22.407Z,2.95
2023-06-29T22:23:53.499Z,2.60
2023-06-29T22:26:21.849Z,2.80
2023-06-29T22:28:48.994Z,3.55
2023-06-29T22:31:18.581Z,3.80
2023-06-29T22:33:46.492Z,2.63
2023-06-29T22:36:15.019Z,2.35
2023-06-29T22:38:42.500Z,2.75
2023-06-29T22:41:09.971Z,2.70
2023-06-29T22:43:37.182Z,2.63
2023-06-29T22:46:04.163Z,2.58
2023-06-29T22:48:31.028Z,2.72
2023-06-29T22:50:58.108Z,2.60
2023-06-29T22:53:25.039Z,2.28
2023-06-29T22:55:51.892Z,2.67
2023-06-29T22:58:25.718Z,2.72
2023-06-29T23:00:56.127Z,2.45
2023-06-29T23:03:23.767Z,2.40
2023-06-29T23:05:50.892Z,2.53
2023-06-29T23:08:17.915Z,2.67
2023-06-29T23:10:47.722Z,2.20
2023-06-29T23:13:17.856Z,2.13
2023-06-29T23:15:46.237Z,2.30
2023-06-29T23:18:14.028Z,2.47
2023-06-29T23:20:45.724Z,1.92
2023-06-29T23:23:16.597Z,2.20
2023-06-29T23:25:43.787Z,2.00
2023-06-29T23:28:11.110Z,2.03
2023-06-29T23:30:38.441Z,2.05
2023-06-29T23:33:05.406Z,2.05
2023-06-29T23:35:32.370Z,2.00
2023-06-29T23:37:59.179Z,1.90
2023-06-29T23:40:27.218Z,2.63
2023-06-29T23:42:54.700Z,2.45
2023-06-29T23:45:22.926Z,2.58
2023-06-29T23:47:50.406Z,2.17
2023-06-29T23:50:19.483Z,2.75
2023-06-29T23:52:46.581Z,1.70
2023-06-29T23:55:13.752Z,2.03
2023-06-29T23:57:42.174Z,1.75
